Time;durP1;ratioP1;P1;durP2;ratioP2;P2;SDS_P1;SDS_P2;PMS_P1;PMS_P2;Temp;Humidity;BMP_temperature;BMP_pressure;BME280_temperature;BME280_humidity;BME280_pressure;Samples;Min_cycle;Max_cycle;Signal;HPM_P1;HPM_P2
2021/03/28 00:01:57;;;;;;;10.23;2.80;;;;;7.20;102192.00;;;;9604010;30;20209;-76
2021/03/28 00:07:02;;;;;;;9.23;2.30;;;;;7.20;102191.00;;;;9621645;30;20209;-76
2021/03/28 00:12:13;;;;;;;14.63;2.93;;;;;7.30;102188.00;;;;9623335;30;20225;-77
2021/03/28 00:17:29;;;;;;;14.47;2.43;;;;;7.30;102182.00;;;;9609877;30;20228;-76
2021/03/28 00:22:38;;;;;;;10.30;2.43;;;;;7.30;102172.00;;;;9595444;30;20205;-76
2021/03/28 00:27:49;;;;;;;11.20;2.93;;;;;7.30;102168.00;;;;9595146;30;20213;-76
2021/03/28 00:32:56;;;;;;;8.70;2.17;;;;;7.10;102169.00;;;;9608931;30;20251;-77
2021/03/28 00:38:29;;;;;;;9.37;2.30;;;;;6.80;102162.00;;;;9637798;30;20208;-77
2021/03/28 00:43:42;;;;;;;8.70;2.73;;;;;6.60;102165.00;;;;9622495;30;20209;-77
2021/03/28 00:48:52;;;;;;;10.33;2.30;;;;;6.50;102154.00;;;;9609237;30;20209;-78
2021/03/28 00:54:10;;;;;;;6.73;2.33;;;;;6.40;102157.00;;;;9594832;30;20221;-77
2021/03/28 00:59:30;;;;;;;8.67;2.90;;;;;6.30;102150.00;;;;9607828;30;20240;-77
2021/03/28 01:04:59;;;;;;;9.03;2.90;;;;;6.30;102139.00;;;;9622928;30;20209;-77
2021/03/28 01:10:17;;;;;;;7.23;2.57;;;;;6.20;102149.00;;;;9636337;30;20224;-77
2021/03/28 01:15:56;;;;;;;10.97;3.03;;;;;6.20;102128.00;;;;9623166;30;20644;-77
2021/03/28 01:21:32;;;;;;;11.80;2.70;;;;;6.20;102132.00;;;;9609101;30;20205;-77
2021/03/28 01:27:11;;;;;;;11.40;2.77;;;;;6.10;102121.00;;;;9599410;30;20245;-77
2021/03/28 01:32:24;;;;;;;9.57;3.20;;;;;6.10;102113.00;;;;9592809;30;20224;-77
2021/03/28 01:37:25;;;;;;;8.63;2.70;;;;;6.10;102109.00;;;;9607031;30;20246;-76
2021/03/28 01:42:51;;;;;;;9.23;2.73;;;;;6.20;102113.00;;;;9607395;30;20205;-76
2021/03/28 01:48:02;;;;;;;7.63;2.70;;;;;6.10;102101.00;;;;9620568;30;20213;-77
2021/03/28 01:53:33;;;;;;;12.80;2.93;;;;;6.10;102106.00;;;;9621413;30;20315;-77
2021/03/28 01:58:43;;;;;;;7.17;2.80;;;;;6.20;102100.00;;;;9621442;30;20244;-77
2021/03/28 02:04:19;;;;;;;8.77;2.90;;;;;6.40;102099.00;;;;9621402;30;20202;-77
2021/03/28 02:09:47;;;;;;;7.07;2.80;;;;;6.50;102091.00;;;;9634917;30;20297;-77
2021/03/28 02:14:57;;;;;;;10.23;2.73;;;;;6.50;102096.00;;;;9621806;30;20666;-77
2021/03/28 02:20:27;;;;;;;9.87;3.43;;;;;6.50;102096.00;;;;9619868;30;20667;-77
2021/03/28 02:25:48;;;;;;;9.43;2.97;;;;;6.60;102100.00;;;;9593262;30;20571;-77
2021/03/28 02:31:22;;;;;;;9.70;2.77;;;;;6.60;102093.00;;;;9607010;30;20694;-77
2021/03/28 02:36:37;;;;;;;12.47;3.13;;;;;6.70;102103.00;;;;9602453;30;20238;-77
2021/03/28 02:41:50;;;;;;;10.90;2.97;;;;;6.70;102100.00;;;;9606666;30;20230;-77
2021/03/28 02:47:04;;;;;;;8.23;2.60;;;;;6.70;102091.00;;;;9606449;30;20240;-77
2021/03/28 02:52:13;;;;;;;7.30;2.70;;;;;6.70;102093.00;;;;9620544;30;20221;-77
2021/03/28 02:57:17;;;;;;;13.40;3.00;;;;;6.60;102087.00;;;;9605864;30;20243;-77
2021/03/28 03:02:42;;;;;;;8.47;2.53;;;;;6.60;102087.00;;;;9592542;30;20705;-77
2021/03/28 03:07:52;;;;;;;11.97;3.00;;;;;6.60;102073.00;;;;9605898;30;20228;-77
2021/03/28 03:13:14;;;;;;;7.73;2.40;;;;;6.70;102082.00;;;;9605233;30;20217;-77
2021/03/28 03:19:14;;;;;;;9.70;3.00;;;;;6.80;102090.00;;;;9605683;30;20250;-77
2021/03/28 03:24:53;;;;;;;16.03;3.20;;;;;6.90;102085.00;;;;9619417;30;20253;-77
2021/03/28 03:30:11;;;;;;;6.97;2.67;;;;;7.00;102073.00;;;;9633863;30;20225;-77
2021/03/28 03:35:27;;;;;;;10.27;2.87;;;;;7.10;102074.00;;;;9612823;30;20205;-77
2021/03/28 03:40:42;;;;;;;8.80;2.77;;;;;7.30;102070.00;;;;9627041;30;20255;-77
2021/03/28 03:46:02;;;;;;;6.63;2.23;;;;;7.50;102069.00;;;;9612514;30;20201;-77
2021/03/28 03:51:18;;;;;;;8.27;2.60;;;;;7.60;102070.00;;;;9624673;30;20268;-77
2021/03/28 03:56:48;;;;;;;5.77;2.03;;;;;7.80;102074.00;;;;9610266;30;20248;-76
2021/03/28 04:01:57;;;;;;;5.97;2.30;;;;;7.80;102076.00;;;;9610343;30;20213;-77
2021/03/28 04:07:32;;;;;;;7.23;2.40;;;;;8.00;102084.00;;;;9610279;30;20213;-77
2021/03/28 04:12:46;;;;;;;6.77;2.70;;;;;8.10;102084.00;;;;9623917;30;20236;-77
2021/03/28 04:23:57;;;;;;;6.80;2.50;;;;;8.30;102076.00;;;;9624363;30;20208;-77
2021/03/28 04:29:06;;;;;;;11.47;2.47;;;;;8.30;102092.00;;;;9611056;30;20667;-77
2021/03/28 04:34:15;;;;;;;8.33;2.90;;;;;8.40;102071.00;;;;9609753;30;20225;-77
2021/03/28 04:39:44;;;;;;;5.03;2.27;;;;;8.40;102069.00;;;;9595580;30;20201;-77
2021/03/28 04:44:48;;;;;;;12.43;3.10;;;;;8.50;102069.00;;;;9608828;30;20268;-77
2021/03/28 04:50:21;;;;;;;5.70;3.00;;;;;8.50;102076.00;;;;9623636;30;20225;-77
2021/03/28 04:55:48;;;;;;;13.77;3.43;;;;;8.50;102089.00;;;;9636773;30;20658;-77
2021/03/28 05:01:05;;;;;;;9.47;3.10;;;;;8.40;102075.00;;;;9595356;30;20237;-77
2021/03/28 05:06:35;;;;;;;9.57;3.43;;;;;8.40;102082.00;;;;9595101;30;20719;-77
2021/03/28 05:12:20;;;;;;;10.27;3.40;;;;;8.40;102087.00;;;;9623251;30;20221;-77
2021/03/28 05:17:43;;;;;;;10.87;3.63;;;;;8.40;102095.00;;;;9495909;31;20216;-77
2021/03/28 05:22:59;;;;;;;16.77;3.70;;;;;8.40;102093.00;;;;9618009;30;20670;-77
2021/03/28 05:28:46;;;;;;;6.77;3.70;;;;;8.40;102092.00;;;;9608373;30;20204;-77
2021/03/28 05:33:54;;;;;;;8.17;3.00;;;;;8.40;102099.00;;;;9621797;30;20315;-77
2021/03/28 05:39:20;;;;;;;13.00;4.20;;;;;8.40;102094.00;;;;9636685;30;20268;-77
2021/03/28 05:44:46;;;;;;;9.77;3.60;;;;;8.40;102093.00;;;;9607740;30;20205;-77
2021/03/28 05:50:18;;;;;;;13.87;4.10;;;;;8.30;102088.00;;;;9621334;30;20232;-77
2021/03/28 05:56:07;;;;;;;10.30;3.87;;;;;8.30;102096.00;;;;9621036;30;20208;-76
2021/03/28 06:01:30;;;;;;;7.00;2.93;;;;;8.30;102095.00;;;;9619894;30;20241;-77
2021/03/28 06:06:52;;;;;;;12.17;3.00;;;;;8.60;102101.00;;;;9606088;30;20220;-76
2021/03/28 06:11:54;;;;;;;8.67;2.90;;;;;8.80;102101.00;;;;9606287;30;20674;-77
2021/03/28 06:17:31;;;;;;;7.40;3.03;;;;;9.10;102101.00;;;;9606027;30;20213;-77
2021/03/28 06:22:36;;;;;;;9.53;3.93;;;;;9.50;102102.00;;;;9620714;30;20643;-76
2021/03/28 06:28:16;;;;;;;11.60;3.33;;;;;10.00;102102.00;;;;9620760;30;20201;-76
2021/03/28 06:33:56;;;;;;;9.60;3.47;;;;;10.00;102099.00;;;;9619147;30;20332;-77
2021/03/28 06:39:24;;;;;;;9.43;3.40;;;;;10.00;102105.00;;;;9591575;30;20205;-77
2021/03/28 06:44:59;;;;;;;8.47;3.50;;;;;10.20;102121.00;;;;9619575;30;20201;-77
2021/03/28 06:50:20;;;;;;;9.27;3.17;;;;;10.20;102125.00;;;;9618435;30;20232;-77
2021/03/28 06:55:45;;;;;;;11.23;3.77;;;;;10.40;102132.00;;;;9604858;30;20212;-77
2021/03/28 07:01:17;;;;;;;9.50;3.90;;;;;10.60;102143.00;;;;9604255;30;20233;-77
2021/03/28 07:06:36;;;;;;;13.73;4.03;;;;;10.70;102134.00;;;;9603994;30;20295;-76
2021/03/28 07:12:01;;;;;;;13.67;3.40;;;;;10.90;102146.00;;;;9590227;30;20287;-77
2021/03/28 07:17:27;;;;;;;11.77;4.07;;;;;11.00;102144.00;;;;9604544;30;20215;-77
2021/03/28 07:22:29;;;;;;;12.77;4.07;;;;;11.00;102149.00;;;;9618586;30;20220;-77
2021/03/28 07:27:30;;;;;;;7.73;3.90;;;;;11.00;102138.00;;;;9619979;30;20278;-76
2021/03/28 07:33:12;;;;;;;7.37;3.27;;;;;11.20;102137.00;;;;9617891;30;20225;-77
2021/03/28 07:38:48;;;;;;;9.60;3.33;;;;;12.10;102143.00;;;;9589789;30;20212;-77
2021/03/28 07:44:06;;;;;;;9.10;3.27;;;;;12.80;102154.00;;;;9604115;30;20217;-77
2021/03/28 07:49:30;;;;;;;13.33;3.43;;;;;13.10;102150.00;;;;9616492;30;20279;-77
2021/03/28 07:55:11;;;;;;;10.80;2.77;;;;;12.90;102147.00;;;;9599834;30;20990;-76
2021/03/28 08:00:31;;;;;;;11.87;3.40;;;;;12.20;102149.00;;;;9589586;30;20285;-77
2021/03/28 08:05:56;;;;;;;8.37;3.57;;;;;12.50;102138.00;;;;9604004;30;20276;-76
2021/03/28 08:11:16;;;;;;;9.97;3.53;;;;;13.00;102151.00;;;;9603980;30;20236;-77
2021/03/28 08:17:07;;;;;;;12.50;3.40;;;;;13.50;102141.00;;;;9619031;30;20208;-78
2021/03/28 08:22:28;;;;;;;11.53;3.63;;;;;13.70;102145.00;;;;9582612;30;20205;-77
2021/03/28 08:27:54;;;;;;;8.00;2.50;;;;;14.00;102147.00;;;;9625566;30;20773;-77
2021/03/28 08:33:39;;;;;;;6.87;2.80;;;;;14.50;102149.00;;;;9609292;30;20231;-77
2021/03/28 08:38:46;;;;;;;11.73;2.93;;;;;14.90;102130.00;;;;9610380;30;20208;-77
2021/03/28 08:44:26;;;;;;;8.43;2.60;;;;;15.70;102134.00;;;;9610572;30;20213;-78
2021/03/28 08:49:57;;;;;;;6.57;2.23;;;;;15.50;102157.00;;;;9610833;30;20662;-77
2021/03/28 08:55:16;;;;;;;7.87;2.20;;;;;15.00;102148.00;;;;9610719;30;20213;-77
2021/03/28 09:00:34;;;;;;;5.70;1.90;;;;;14.40;102139.00;;;;9623573;30;20243;-77
2021/03/28 09:06:01;;;;;;;6.23;1.53;;;;;14.20;102144.00;;;;9608682;30;20208;-76
2021/03/28 09:11:08;;;;;;;4.97;1.63;;;;;15.00;102145.00;;;;9621969;30;20288;-77
2021/03/28 09:16:20;;;;;;;5.77;1.80;;;;;15.60;102149.00;;;;9636497;30;20678;-77
2021/03/28 09:21:28;;;;;;;6.37;1.53;;;;;15.70;102145.00;;;;9638557;30;20209;-77
2021/03/28 09:26:58;;;;;;;7.23;1.73;;;;;16.00;102158.00;;;;9625438;30;20220;-77
2021/03/28 09:32:42;;;;;;;5.60;1.87;;;;;16.20;102144.00;;;;9620557;30;20667;-77
2021/03/28 09:37:50;;;;;;;6.57;1.97;;;;;16.50;102135.00;;;;9638265;30;20240;-77
2021/03/28 09:43:13;;;;;;;4.80;1.73;;;;;17.20;102146.00;;;;9624128;30;20627;-77
2021/03/28 09:48:26;;;;;;;7.07;1.90;;;;;18.30;102150.00;;;;9624248;30;20213;-77
2021/03/28 09:53:58;;;;;;;3.90;1.85;;;;;18.70;102153.00;;;;9623702;30;20225;-78
2021/03/28 09:59:17;;;;;;;5.40;1.85;;;;;17.90;102168.00;;;;9622699;30;20248;-77
2021/03/28 10:04:31;;;;;;;7.72;1.98;;;;;17.90;102167.00;;;;9607927;30;20197;-77
2021/03/28 10:09:45;;;;;;;6.68;1.98;;;;;18.70;102172.00;;;;9607419;30;20209;-76
2021/03/28 10:15:06;;;;;;;4.47;1.70;;;;;18.90;102201.00;;;;9608231;30;20224;-77
2021/03/28 10:20:16;;;;;;;5.60;1.75;;;;;18.20;102180.00;;;;9592677;30;20663;-77
2021/03/28 10:25:39;;;;;;;5.22;1.90;;;;;18.30;102164.00;;;;9620444;30;20201;-77
2021/03/28 10:31:08;;;;;;;7.35;2.00;;;;;18.50;102165.00;;;;9620806;30;20709;-77
2021/03/28 10:36:22;;;;;;;4.93;1.75;;;;;18.40;102182.00;;;;9621275;30;20270;-77
2021/03/28 10:41:42;;;;;;;7.07;2.15;;;;;18.60;102185.00;;;;9619587;30;20192;-76
2021/03/28 10:46:43;;;;;;;8.93;2.50;;;;;18.70;102192.00;;;;9608500;30;20216;-76
2021/03/28 10:52:12;;;;;;;4.75;2.10;;;;;18.60;102188.00;;;;9603964;30;20224;-76
2021/03/28 10:58:03;;;;;;;3.50;1.73;;;;;18.90;102186.00;;;;9618852;30;20245;-76
2021/03/28 11:03:34;;;;;;;8.63;2.20;;;;;19.30;102190.00;;;;9619151;30;20272;-77
2021/03/28 11:09:02;;;;;;;7.80;2.13;;;;;19.90;102182.00;;;;9604345;30;20209;-77
2021/03/28 11:14:33;;;;;;;8.18;2.00;;;;;20.30;102188.00;;;;9604614;30;20717;-77
2021/03/28 11:20:01;;;;;;;5.68;2.15;;;;;20.00;102199.00;;;;9625511;30;20213;-76
2021/03/28 11:25:19;;;;;;;6.47;2.00;;;;;19.50;102198.00;;;;9587998;30;20201;-76
2021/03/28 11:30:35;;;;;;;7.85;2.35;;;;;19.80;102194.00;;;;9588440;30;20229;-77
2021/03/28 11:36:02;;;;;;;6.13;2.35;;;;;19.70;102197.00;;;;9613735;30;20209;-76
2021/03/28 11:41:07;;;;;;;9.60;2.10;;;;;19.90;102192.00;;;;9590606;30;20201;-76
2021/03/28 11:46:29;;;;;;;6.70;1.95;;;;;19.70;102193.00;;;;9584002;30;20213;-77
2021/03/28 11:51:36;;;;;;;6.78;1.95;;;;;19.30;102184.00;;;;9614602;30;20224;-77
2021/03/28 11:56:41;;;;;;;5.00;1.63;;;;;19.70;102183.00;;;;9623905;30;20240;-76
2021/03/28 12:01:58;;;;;;;5.57;1.98;;;;;19.70;102181.00;;;;9638289;30;20205;-76
2021/03/28 12:07:16;;;;;;;5.57;1.80;;;;;19.20;102191.00;;;;9609296;30;20278;-76
2021/03/28 12:12:37;;;;;;;7.32;1.85;;;;;19.10;102187.00;;;;9610506;30;20220;-77
2021/03/28 12:17:38;;;;;;;5.80;1.85;;;;;19.30;102182.00;;;;9616546;30;20283;-77
2021/03/28 12:22:46;;;;;;;6.22;1.65;;;;;19.00;102194.00;;;;9624324;30;20303;-76
2021/03/28 12:27:56;;;;;;;9.30;2.35;;;;;18.60;102183.00;;;;9607375;30;20296;-77
2021/03/28 12:33:01;;;;;;;8.07;2.22;;;;;18.60;102187.00;;;;9609416;30;20316;-77
2021/03/28 12:38:32;;;;;;;6.40;2.00;;;;;18.90;102182.00;;;;9581273;30;20198;-77
2021/03/28 12:43:38;;;;;;;4.35;2.20;;;;;19.00;102191.00;;;;9616670;30;20666;-76
2021/03/28 12:48:40;;;;;;;7.38;2.67;;;;;19.30;102182.00;;;;9623855;30;20245;-77
2021/03/28 12:53:41;;;;;;;6.75;2.08;;;;;19.40;102166.00;;;;9601432;30;20243;-77
2021/03/28 12:58:43;;;;;;;7.95;2.15;;;;;18.90;102162.00;;;;9627202;30;20233;-77
2021/03/28 13:03:47;;;;;;;7.03;2.25;;;;;19.30;102158.00;;;;9596315;30;20205;-77
2021/03/28 13:09:02;;;;;;;6.43;2.47;;;;;19.00;102165.00;;;;9600721;30;20670;-77
2021/03/28 13:14:06;;;;;;;7.80;2.17;;;;;19.20;102159.00;;;;9615071;30;20219;-77
2021/03/28 13:19:23;;;;;;;5.85;2.28;;;;;19.40;102171.00;;;;9618278;30;20256;-76
2021/03/28 13:24:25;;;;;;;9.20;2.10;;;;;19.90;102170.00;;;;9605032;30;20205;-77
2021/03/28 13:29:37;;;;;;;7.65;2.45;;;;;19.20;102166.00;;;;9613504;30;20209;-77
2021/03/28 13:34:47;;;;;;;5.75;2.20;;;;;18.70;102158.00;;;;9612251;30;20217;-77
2021/03/28 13:40:03;;;;;;;5.85;2.13;;;;;19.20;102150.00;;;;9607275;30;20248;-76
2021/03/28 13:45:21;;;;;;;8.27;2.38;;;;;19.20;102159.00;;;;9620900;30;20665;-76
2021/03/28 13:50:41;;;;;;;9.48;2.95;;;;;19.80;102147.00;;;;9607609;30;21031;-76
2021/03/28 13:55:48;;;;;;;4.85;2.38;;;;;20.30;102142.00;;;;9616899;30;20571;-76
2021/03/28 14:00:56;;;;;;;8.70;2.65;;;;;20.50;102153.00;;;;9588697;30;20300;-77
2021/03/28 14:06:20;;;;;;;6.63;2.33;;;;;20.80;102143.00;;;;9606070;30;20212;-77
2021/03/28 14:11:27;;;;;;;8.10;2.38;;;;;22.20;102131.00;;;;9609015;30;20217;-78
2021/03/28 14:16:30;;;;;;;7.18;2.42;;;;;22.80;102122.00;;;;9614032;30;20232;-77
2021/03/28 14:21:38;;;;;;;6.32;2.35;;;;;23.20;102130.00;;;;9636272;30;20274;-78
2021/03/28 14:26:44;;;;;;;6.43;2.08;;;;;21.70;102139.00;;;;9614608;30;20662;-77
2021/03/28 14:32:12;;;;;;;8.20;2.15;;;;;21.20;102117.00;;;;9623971;30;20216;-76
2021/03/28 14:37:23;;;;;;;9.20;2.30;;;;;23.00;102113.00;;;;9617592;30;20224;-77
2021/03/28 14:42:28;;;;;;;6.22;2.53;;;;;23.40;102117.00;;;;9616624;30;20205;-76
2021/03/28 14:47:57;;;;;;;9.18;3.13;;;;;23.90;102098.00;;;;9616709;30;20300;-77
2021/03/28 14:53:36;;;;;;;7.85;2.20;;;;;23.30;102126.00;;;;9619417;30;20288;-77
2021/03/28 14:58:52;;;;;;;5.70;2.25;;;;;23.10;102112.00;;;;9631684;30;20284;-76
2021/03/28 15:04:10;;;;;;;7.00;2.63;;;;;23.10;102112.00;;;;9596271;30;20255;-76
2021/03/28 15:09:22;;;;;;;8.05;3.00;;;;;23.30;102117.00;;;;9616403;30;20219;-77
2021/03/28 15:14:36;;;;;;;7.57;2.20;;;;;22.80;102133.00;;;;9602243;30;20256;-77
2021/03/28 15:20:13;;;;;;;7.55;2.33;;;;;22.40;102120.00;;;;9609345;30;20212;-77
2021/03/28 15:25:23;;;;;;;9.57;2.78;;;;;21.40;102120.00;;;;9601982;30;20205;-76
2021/03/28 15:30:40;;;;;;;5.97;2.72;;;;;20.90;102132.00;;;;9615884;30;20228;-77
2021/03/28 15:35:49;;;;;;;10.73;2.53;;;;;20.50;102132.00;;;;9616847;30;20201;-77
2021/03/28 15:41:27;;;;;;;5.80;2.42;;;;;19.60;102131.00;;;;9615999;30;20296;-77
2021/03/28 15:46:47;;;;;;;7.45;2.55;;;;;18.60;102134.00;;;;9611815;30;20204;-77
2021/03/28 15:52:22;;;;;;;5.15;2.40;;;;;18.40;102135.00;;;;9619950;30;20244;-77
2021/03/28 15:57:45;;;;;;;8.60;2.58;;;;;17.90;102147.00;;;;9616456;30;20283;-77
2021/03/28 16:03:21;;;;;;;7.30;2.80;;;;;17.50;102134.00;;;;9625099;30;20221;-78
2021/03/28 16:08:52;;;;;;;7.53;2.35;;;;;17.30;102138.00;;;;9617028;30;20252;-76
2021/03/28 16:14:02;;;;;;;8.52;2.85;;;;;17.10;102129.00;;;;9594181;30;20217;-76
2021/03/28 16:19:19;;;;;;;6.30;2.40;;;;;17.10;102137.00;;;;9620344;30;20227;-76
2021/03/28 16:24:41;;;;;;;6.55;2.47;;;;;17.20;102139.00;;;;9622997;30;20216;-77
2021/03/28 16:29:45;;;;;;;10.30;3.20;;;;;17.20;102142.00;;;;9612197;30;20993;-76
2021/03/28 16:35:11;;;;;;;7.80;2.70;;;;;16.80;102133.00;;;;9614166;30;20540;-76
2021/03/28 16:40:40;;;;;;;8.17;2.80;;;;;16.50;102136.00;;;;9615676;30;20209;-77
2021/03/28 16:46:06;;;;;;;8.63;2.97;;;;;16.00;102129.00;;;;9632528;30;20225;-77
2021/03/28 16:51:18;;;;;;;9.07;2.93;;;;;15.60;102134.00;;;;9618060;30;20636;-76
2021/03/28 16:56:24;;;;;;;6.87;2.50;;;;;15.20;102134.00;;;;9620064;30;20236;-75
2021/03/28 17:01:36;;;;;;;8.00;3.10;;;;;14.90;102141.00;;;;9631986;30;20621;-77
2021/03/28 17:06:43;;;;;;;5.37;2.80;;;;;14.70;102146.00;;;;9599873;30;20627;-76
2021/03/28 17:12:09;;;;;;;11.40;3.03;;;;;14.50;102146.00;;;;9634396;30;20220;-76
2021/03/28 17:17:38;;;;;;;5.50;2.87;;;;;14.30;102144.00;;;;9591494;30;20209;-77
2021/03/28 17:22:57;;;;;;;8.67;2.87;;;;;14.10;102140.00;;;;9603828;30;20284;-76
2021/03/28 17:28:15;;;;;;;14.17;3.00;;;;;13.90;102150.00;;;;9631885;30;20292;-77
2021/03/28 17:33:37;;;;;;;6.13;2.97;;;;;13.70;102143.00;;;;9617315;30;20340;-78
2021/03/28 17:39:03;;;;;;;8.57;3.00;;;;;13.60;102158.00;;;;9588381;30;20251;-77
2021/03/28 17:44:04;;;;;;;11.93;3.20;;;;;13.40;102154.00;;;;9618226;30;20246;-77
2021/03/28 17:49:06;;;;;;;6.33;2.90;;;;;13.20;102152.00;;;;9616947;30;20209;-77
2021/03/28 17:54:42;;;;;;;6.07;2.63;;;;;13.00;102153.00;;;;9614286;30;20229;-77
2021/03/28 17:59:44;;;;;;;7.83;3.17;;;;;12.80;102151.00;;;;9616617;30;20597;-77
2021/03/28 18:05:19;;;;;;;9.73;3.37;;;;;12.70;102155.00;;;;9607732;30;20205;-77
2021/03/28 18:10:48;;;;;;;9.80;3.10;;;;;12.40;102153.00;;;;9601367;30;20266;-76
2021/03/28 18:15:53;;;;;;;9.17;3.33;;;;;12.30;102144.00;;;;9619801;30;20236;-77
2021/03/28 18:20:54;;;;;;;9.50;3.37;;;;;12.30;102150.00;;;;9616558;30;20240;-76
2021/03/28 18:25:59;;;;;;;7.60;3.00;;;;;12.20;102144.00;;;;9616006;30;20851;-76
2021/03/28 18:31:15;;;;;;;10.70;3.00;;;;;12.10;102146.00;;;;9620942;30;20273;-76
2021/03/28 18:36:45;;;;;;;10.00;3.90;;;;;12.10;102162.00;;;;9605718;30;20647;-77
2021/03/28 18:41:50;;;;;;;10.83;3.57;;;;;12.00;102152.00;;;;9613160;30;20232;-77
2021/03/28 18:46:57;;;;;;;8.03;3.37;;;;;12.00;102156.00;;;;9635473;30;20267;-77
2021/03/28 18:52:22;;;;;;;8.10;3.47;;;;;11.90;102155.00;;;;9606640;30;20315;-77
2021/03/28 18:57:47;;;;;;;10.67;3.57;;;;;11.90;102147.00;;;;9622272;30;20275;-78
2021/03/28 19:02:52;;;;;;;7.37;3.07;;;;;11.80;102149.00;;;;9630780;30;20205;-77
2021/03/28 19:07:54;;;;;;;11.70;3.60;;;;;11.70;102149.00;;;;9631601;30;20580;-77
2021/03/28 19:13:01;;;;;;;7.00;3.30;;;;;11.70;102151.00;;;;9604857;30;20221;-77
2021/03/28 19:18:14;;;;;;;11.33;3.93;;;;;11.60;102153.00;;;;9606382;30;20272;-77
2021/03/28 19:23:36;;;;;;;11.37;4.13;;;;;11.50;102162.00;;;;9612949;30;20242;-77
2021/03/28 19:28:37;;;;;;;9.67;3.47;;;;;11.60;102160.00;;;;9619390;30;20209;-77
2021/03/28 19:33:39;;;;;;;12.20;4.00;;;;;11.50;102159.00;;;;9613415;30;20310;-77
2021/03/28 19:38:43;;;;;;;13.27;4.20;;;;;11.40;102168.00;;;;9638407;30;20212;-77
2021/03/28 19:43:55;;;;;;;9.57;4.30;;;;;11.40;102166.00;;;;9616556;30;20201;-77
2021/03/28 19:49:01;;;;;;;14.83;4.20;;;;;11.30;102166.00;;;;9629301;30;20212;-77
2021/03/28 19:54:08;;;;;;;11.13;3.90;;;;;11.20;102179.00;;;;9616530;30;20311;-77
2021/03/28 19:59:46;;;;;;;11.20;3.97;;;;;11.10;102173.00;;;;9617469;30;20243;-77
2021/03/28 20:05:25;;;;;;;8.57;4.00;;;;;11.00;102175.00;;;;9592170;30;20208;-77
2021/03/28 20:10:27;;;;;;;10.50;4.83;;;;;10.90;102162.00;;;;9602727;30;20221;-77
2021/03/28 20:15:29;;;;;;;12.50;4.57;;;;;10.80;102170.00;;;;9611427;30;20296;-77
2021/03/28 20:20:35;;;;;;;11.10;4.83;;;;;10.80;102172.00;;;;9623360;30;20213;-77
2021/03/28 20:25:37;;;;;;;14.97;4.53;;;;;10.70;102175.00;;;;9615326;30;20213;-77
2021/03/28 20:30:57;;;;;;;23.37;6.20;;;;;10.80;102179.00;;;;9603463;30;20266;-77
2021/03/28 20:36:01;;;;;;;10.37;4.50;;;;;10.80;102181.00;;;;9619451;30;20229;-77
2021/03/28 20:41:17;;;;;;;13.63;4.30;;;;;10.80;102187.00;;;;9632125;30;20205;-76
2021/03/28 20:46:24;;;;;;;10.40;5.07;;;;;10.70;102187.00;;;;9632021;30;20240;-77
2021/03/28 20:51:26;;;;;;;15.43;5.47;;;;;10.50;102180.00;;;;9602343;30;20228;-77
2021/03/28 20:56:32;;;;;;;15.97;4.67;;;;;10.40;102174.00;;;;9622499;30;20229;-76
2021/03/28 21:01:39;;;;;;;13.50;5.03;;;;;10.30;102176.00;;;;9604969;30;20221;-76
2021/03/28 21:06:47;;;;;;;11.70;5.10;;;;;10.20;102181.00;;;;9615334;30;20270;-76
2021/03/28 21:11:54;;;;;;;11.93;5.50;;;;;10.20;102179.00;;;;9619659;30;20706;-76
2021/03/28 21:17:03;;;;;;;10.30;5.13;;;;;10.10;102191.00;;;;9613787;30;20209;-76
2021/03/28 21:22:05;;;;;;;13.83;5.20;;;;;9.90;102199.00;;;;9612999;30;20205;-76
2021/03/28 21:27:08;;;;;;;13.50;5.13;;;;;9.90;102189.00;;;;9618625;30;20209;-76
2021/03/28 21:32:10;;;;;;;13.57;5.60;;;;;9.90;102202.00;;;;9617927;30;20694;-76
2021/03/28 21:37:16;;;;;;;12.80;5.30;;;;;10.00;102196.00;;;;9614626;30;20708;-76
2021/03/28 21:42:19;;;;;;;13.27;6.20;;;;;9.90;102211.00;;;;9602328;30;20197;-77
2021/03/28 21:47:22;;;;;;;17.20;6.10;;;;;9.80;102221.00;;;;9622532;30;20205;-76
2021/03/28 21:52:35;;;;;;;14.67;6.07;;;;;9.70;102226.00;;;;9602364;30;20224;-76
2021/03/28 21:57:38;;;;;;;14.90;5.63;;;;;9.60;102223.00;;;;9618166;30;20237;-76
2021/03/28 22:02:39;;;;;;;14.57;5.20;;;;;9.50;102221.00;;;;9612939;30;20260;-76
2021/03/28 22:07:52;;;;;;;16.77;5.73;;;;;9.40;102213.00;;;;9604268;30;20201;-76
2021/03/28 22:12:54;;;;;;;13.17;5.17;;;;;9.40;102197.00;;;;9599755;30;20232;-77
2021/03/28 22:17:56;;;;;;;14.37;5.20;;;;;9.50;102205.00;;;;9598116;30;20213;-77
2021/03/28 22:23:01;;;;;;;10.70;5.00;;;;;9.50;102211.00;;;;9603477;30;20260;-77
2021/03/28 22:28:12;;;;;;;10.87;4.90;;;;;9.50;102217.00;;;;9595715;30;20220;-76
2021/03/28 22:33:15;;;;;;;16.23;5.13;;;;;9.30;102222.00;;;;9613602;30;20284;-77
2021/03/28 22:38:17;;;;;;;12.67;5.27;;;;;9.10;102215.00;;;;9629196;30;20214;-76
2021/03/28 22:43:27;;;;;;;9.77;4.63;;;;;8.90;102212.00;;;;9618037;30;20334;-77
2021/03/28 22:48:30;;;;;;;9.03;4.23;;;;;8.90;102212.00;;;;9627199;30;20208;-76
2021/03/28 22:53:33;;;;;;;12.33;4.53;;;;;8.90;102206.00;;;;9631962;30;20228;-77
2021/03/28 22:58:47;;;;;;;11.97;4.67;;;;;9.00;102214.00;;;;9603806;30;20248;-76
2021/03/28 23:03:50;;;;;;;9.93;4.73;;;;;9.00;102225.00;;;;9624113;30;20647;-76
2021/03/28 23:08:53;;;;;;;11.23;4.23;;;;;9.00;102212.00;;;;9613708;30;20209;-77
2021/03/28 23:14:04;;;;;;;15.13;4.77;;;;;8.90;102215.00;;;;9618613;30;20645;-77
2021/03/28 23:19:06;;;;;;;10.73;3.93;;;;;8.90;102217.00;;;;9604068;30;20197;-77
2021/03/28 23:24:13;;;;;;;8.90;3.90;;;;;8.80;102228.00;;;;9604834;30;20205;-76
2021/03/28 23:29:15;;;;;;;11.77;4.90;;;;;8.80;102228.00;;;;9618135;30;20209;-77
2021/03/28 23:34:18;;;;;;;12.47;4.67;;;;;8.80;102226.00;;;;9614562;30;20334;-77
2021/03/28 23:39:19;;;;;;;11.17;4.60;;;;;8.70;102227.00;;;;9603855;30;20721;-77
2021/03/28 23:44:26;;;;;;;12.43;4.10;;;;;8.60;102213.00;;;;9612559;30;20606;-77
2021/03/28 23:49:33;;;;;;;8.53;3.87;;;;;8.60;102214.00;;;;9622099;30;20212;-77
2021/03/28 23:54:36;;;;;;;10.77;3.50;;;;;8.60;102207.00;;;;9597141;30;20232;-77
2021/03/28 23:59:39;;;;;;;14.07;4.00;;;;;8.80;102211.00;;;;9610614;30;20642;-77
